LIPE Airport Information

Runway Information
Runway 12 Length 9186 ft width 150 ft
Elevation 120 ft Threshold 1007 ft Heading 117
Runway 30 Length 9186 ft Width 150 ft
Elevation 120 ft Threshold 1188 ft Heading 297
Airport Frequencies
Type APP Name APP Frequency 120.1 MHZ
Type ATIS Name ATIS Frequency 134.875 MHZ
Type GND Name GND Frequency 129.925 MHZ
Type TWR Name TWR Frequency 120.8 MHZ
Airport Navaids
Type VOR-DME Name Bologna Frequency 112200 KHZ
Type NDB Name Bologna Frequency 413 KHZ
Airport Weather Information & NOTAM
ADDS - METARS form results

(1309 UTC 23 February 2019)
Data provider http://aviationweather.gov/metar/data/
 
METAR text: LIPE 231250Z 09013KT 060V120 CAVOK 09/M11 Q1034
Conditions at: LIPE (BOLOGNA/BORGO (A, IT) observed 1250 UTC 23 February 2019
Temperature: 9.0°C (48°F)
Dewpoint: -11.0°C (12°F) [RH = 23%]
Pressure (altimeter): 30.53 inches Hg (1034.0 mb)
Winds: from the E (90 degrees) at 15 MPH (13 knots; 6.7 m/s)
Visibility: 6 or more miles (10+ km)
Ceiling: ceiling and visibility are OK
Clouds: unknown
Weather: no significant weather observed at this time

METAR text: LIPE 231220Z 10015KT 070V130 CAVOK 09/M09 Q1034
Conditions at: LIPE (BOLOGNA/BORGO (A, IT) observed 1220 UTC 23 February 2019
Temperature: 9.0°C (48°F)
Dewpoint: -9.0°C (16°F) [RH = 27%]
Pressure (altimeter): 30.53 inches Hg (1034.0 mb)
Winds: from the E (100 degrees) at 17 MPH (15 knots; 7.7 m/s)
Visibility: 6 or more miles (10+ km)
Ceiling: ceiling and visibility are OK
Clouds: unknown
Weather: no significant weather observed at this time

Forecast for: LIPE (BOLOGNA/BORGO (A, IT)
Text: TAF LIPE 231100Z 2312/2412 10016KT CAVOK
Forecast period: 1200 to 2200 UTC 23 February 2019
Forecast type: FROM: standard forecast or significant change
Winds: from the E (100 degrees) at 18 MPH (16 knots; 8.2 m/s)
Visibility: 6 or more miles 10+ km)
Ceiling: unknown
Clouds: missing
Weather: NSW  (no significant weather)
Text: BECMG 2322/2324 VRB06KT
Forecast period: 2200 UTC 23 February 2019 to 1200 UTC 24 February 2019
Forecast type: BECOMING: Conditions expected to become as follows by 0000 UTC 24 February 2019
Winds: variable direction winds at 7 MPH (6 knots; 3.1 m/s)
Visibility: 6 or more miles 10+ km)
Ceiling: unknown
Clouds: missing
Weather: NSW  (no significant weather)